createdAt,value
2023-07-08T00:00:31.229Z,30.00
2023-07-08T00:01:33.525Z,31.60
2023-07-08T00:02:35.677Z,25.70
2023-07-08T00:03:37.825Z,25.90
2023-07-08T00:04:40.763Z,23.90
2023-07-08T00:05:44.417Z,22.18
2023-07-08T00:06:46.959Z,18.60
2023-07-08T00:07:49.346Z,18.50
2023-07-08T00:08:51.625Z,16.00
2023-07-08T00:09:53.676Z,15.90
2023-07-08T00:10:56.879Z,17.80
2023-07-08T00:11:59.465Z,14.20
2023-07-08T00:13:01.632Z,16.60
2023-07-08T00:14:04.094Z,18.00
2023-07-08T00:15:07.372Z,14.10
2023-07-08T00:16:16.244Z,14.40
2023-07-08T00:17:18.728Z,14.70
2023-07-08T00:18:20.793Z,17.60
2023-07-08T00:19:24.798Z,13.50
2023-07-08T00:20:39.199Z,14.40
2023-07-08T00:21:41.648Z,16.40
2023-07-08T00:22:43.954Z,14.80
2023-07-08T00:23:50.967Z,13.90
2023-07-08T00:24:53.135Z,16.50
2023-07-08T00:25:55.853Z,16.20
2023-07-08T00:26:58.673Z,16.00
2023-07-08T00:28:01.017Z,17.70
2023-07-08T00:29:03.421Z,16.00
2023-07-08T00:31:22.281Z,16.10
2023-07-08T00:32:24.695Z,16.20
2023-07-08T00:33:27.263Z,16.60
2023-07-08T00:34:29.497Z,16.70
2023-07-08T00:35:35.290Z,15.20
2023-07-08T00:36:38.682Z,15.00
2023-07-08T00:37:42.282Z,15.20
2023-07-08T00:38:45.593Z,15.40
2023-07-08T00:39:48.296Z,16.00
2023-07-08T00:41:00.130Z,16.40
2023-07-08T00:43:39.239Z,18.70
2023-07-08T00:44:42.295Z,15.70
2023-07-08T00:46:02.211Z,16.90
2023-07-08T00:47:05.330Z,15.50
2023-07-08T00:48:28.491Z,16.50
2023-07-08T00:49:47.525Z,17.20
2023-07-08T00:50:51.291Z,14.80
2023-07-08T00:51:53.518Z,17.40
2023-07-08T00:53:24.720Z,14.00
2023-07-08T00:54:27.220Z,14.70
2023-07-08T00:55:29.858Z,12.80
2023-07-08T00:59:31.246Z,17.40
2023-07-08T01:00:41.361Z,15.00
2023-07-08T01:01:44.609Z,15.70
2023-07-08T01:02:50.968Z,15.80
2023-07-08T01:04:00.444Z,15.20
2023-07-08T01:05:07.648Z,17.60
2023-07-08T01:06:10.746Z,16.30
2023-07-08T01:07:12.996Z,15.90
2023-07-08T01:08:15.267Z,15.20
2023-07-08T01:09:19.833Z,14.90
2023-07-08T01:10:34.927Z,15.10
2023-07-08T01:11:40.733Z,16.50
2023-07-08T01:12:46.772Z,18.70
2023-07-08T01:13:51.993Z,13.70
2023-07-08T01:14:56.090Z,14.90
2023-07-08T01:15:58.829Z,14.70
2023-07-08T01:17:01.907Z,14.82
2023-07-08T01:18:04.225Z,16.20
2023-07-08T01:19:10.004Z,15.20
2023-07-08T01:20:12.553Z,16.00
2023-07-08T01:21:39.481Z,13.30
2023-07-08T01:22:44.680Z,13.80
2023-07-08T01:23:47.370Z,14.50
2023-07-08T01:24:49.749Z,15.45
2023-07-08T01:25:52.416Z,16.90
2023-07-08T01:26:55.106Z,14.36
2023-07-08T01:27:58.321Z,17.90
2023-07-08T01:29:02.437Z,15.00
2023-07-08T01:30:06.406Z,12.90
2023-07-08T01:31:09.325Z,14.20
2023-07-08T01:32:13.943Z,14.20
2023-07-08T01:33:21.078Z,15.50
2023-07-08T01:34:24.852Z,13.60
2023-07-08T01:35:27.261Z,16.70
2023-07-08T01:37:45.827Z,15.70
2023-07-08T01:38:48.937Z,15.20
2023-07-08T01:39:51.437Z,15.80
2023-07-08T01:40:56.545Z,15.30
2023-07-08T01:41:59.718Z,15.60
2023-07-08T01:43:03.889Z,14.36
2023-07-08T01:44:08.051Z,13.50
2023-07-08T01:45:16.404Z,15.80
2023-07-08T01:47:32.096Z,14.80
2023-07-08T01:48:39.123Z,15.20
2023-07-08T01:49:43.437Z,14.50
2023-07-08T01:52:12.218Z,16.00
2023-07-08T01:53:21.384Z,14.50
2023-07-08T01:54:24.245Z,13.90
2023-07-08T01:55:27.792Z,13.00
2023-07-08T01:56:30.721Z,14.50
2023-07-08T01:57:33.028Z,16.00
2023-07-08T01:58:35.557Z,14.00
2023-07-08T01:59:37.838Z,15.20
2023-07-08T02:00:41.339Z,14.90
2023-07-08T02:01:43.624Z,16.50
2023-07-08T02:02:45.963Z,15.00
2023-07-08T02:03:48.219Z,14.40
2023-07-08T02:04:50.917Z,13.10
2023-07-08T02:05:53.310Z,16.90
2023-07-08T02:06:59.674Z,14.20
2023-07-08T02:08:03.310Z,14.50
2023-07-08T02:09:05.670Z,12.30
2023-07-08T02:10:09.233Z,13.00
2023-07-08T02:11:12.018Z,16.10
2023-07-08T02:12:14.531Z,14.00
2023-07-08T02:13:16.725Z,13.50
2023-07-08T02:14:19.118Z,15.90
2023-07-08T02:15:21.385Z,13.00
2023-07-08T02:16:23.523Z,13.50
2023-07-08T02:17:25.941Z,13.50
2023-07-08T02:18:28.199Z,15.70
2023-07-08T02:19:30.475Z,16.20
2023-07-08T02:20:33.308Z,15.90
2023-07-08T02:21:35.976Z,12.50
2023-07-08T02:22:38.547Z,12.50
2023-07-08T02:23:40.892Z,13.80
2023-07-08T02:24:43.021Z,11.90
2023-07-08T02:25:53.083Z,14.20
2023-07-08T02:26:55.329Z,15.00
2023-07-08T02:27:57.802Z,12.70
2023-07-08T02:29:00.822Z,13.00
2023-07-08T02:30:03.222Z,8.70
2023-07-08T02:31:05.660Z,13.70
2023-07-08T02:32:09.607Z,13.60
2023-07-08T02:33:12.283Z,11.60
2023-07-08T02:34:14.711Z,12.45
2023-07-08T02:35:17.032Z,13.30
2023-07-08T02:36:19.712Z,16.30
2023-07-08T02:37:22.114Z,13.10
2023-07-08T02:38:24.421Z,12.80
2023-07-08T02:39:26.484Z,14.40
2023-07-08T02:40:29.187Z,12.60
2023-07-08T02:41:31.458Z,13.60
2023-07-08T02:42:34.133Z,13.00
2023-07-08T02:43:36.449Z,13.50
2023-07-08T02:44:38.752Z,13.80
2023-07-08T02:45:40.997Z,12.50
2023-07-08T02:46:43.912Z,14.36
2023-07-08T02:47:46.654Z,15.60
2023-07-08T02:48:49.169Z,15.20
2023-07-08T02:49:51.214Z,11.70
2023-07-08T02:50:59.818Z,12.27
2023-07-08T02:52:02.390Z,11.10
2023-07-08T02:53:04.531Z,13.00
2023-07-08T02:54:07.159Z,14.00
2023-07-08T02:55:09.432Z,12.30
2023-07-08T02:56:12.450Z,15.00
2023-07-08T02:57:15.188Z,13.70
2023-07-08T02:58:17.505Z,13.70
2023-07-08T02:59:20.949Z,12.00
2023-07-08T03:00:23.457Z,12.60
2023-07-08T03:01:25.685Z,14.20
2023-07-08T03:02:28.104Z,11.90
2023-07-08T03:03:30.500Z,16.50
2023-07-08T03:04:35.337Z,12.30
2023-07-08T03:05:37.745Z,12.90
2023-07-08T03:06:41.385Z,12.60
2023-07-08T03:07:43.841Z,17.00
2023-07-08T03:08:46.165Z,13.40
2023-07-08T03:09:48.373Z,13.30
2023-07-08T03:11:00.396Z,14.60
2023-07-08T03:12:02.972Z,13.40
2023-07-08T03:13:06.620Z,13.50
2023-07-08T03:14:09.148Z,14.40
2023-07-08T03:15:11.823Z,13.27
2023-07-08T03:16:14.503Z,12.40
2023-07-08T03:17:16.944Z,14.70
2023-07-08T03:18:19.412Z,14.50
2023-07-08T03:19:21.491Z,11.70
2023-07-08T03:20:24.595Z,13.50
2023-07-08T03:21:27.016Z,12.00
2023-07-08T03:22:29.323Z,14.90
2023-07-08T03:23:31.549Z,12.80
2023-07-08T03:24:34.428Z,13.10
2023-07-08T03:25:38.333Z,13.40
2023-07-08T03:26:41.768Z,13.30
2023-07-08T03:27:45.229Z,14.82
2023-07-08T03:28:49.234Z,11.70
2023-07-08T03:29:51.779Z,17.30
2023-07-08T03:30:54.482Z,13.20
2023-07-08T03:31:56.967Z,13.60
2023-07-08T03:33:00.000Z,14.20
2023-07-08T03:34:02.399Z,14.40
2023-07-08T03:35:05.673Z,11.70
2023-07-08T03:37:23.541Z,15.80
2023-07-08T03:38:25.867Z,15.70
2023-07-08T03:39:28.269Z,13.80
2023-07-08T03:40:30.704Z,14.50
2023-07-08T03:41:33.402Z,12.90
2023-07-08T03:42:35.712Z,14.20
2023-07-08T03:43:39.077Z,16.00
2023-07-08T03:44:41.291Z,11.70
2023-07-08T03:45:44.069Z,12.70
2023-07-08T03:46:49.481Z,11.10
2023-07-08T03:47:53.201Z,13.90
2023-07-08T03:48:55.582Z,12.45
2023-07-08T03:49:57.862Z,11.80
2023-07-08T03:51:01.072Z,7.70
2023-07-08T03:52:04.203Z,13.80
2023-07-08T03:53:06.729Z,11.64
2023-07-08T03:55:20.752Z,15.30
2023-07-08T03:56:23.012Z,12.60
2023-07-08T03:57:25.288Z,13.70
2023-07-08T03:58:27.690Z,13.00
2023-07-08T03:59:30.413Z,13.20
2023-07-08T04:00:33.119Z,15.91
2023-07-08T04:01:37.119Z,12.40
2023-07-08T04:02:40.790Z,12.30
2023-07-08T04:03:44.098Z,12.80
2023-07-08T04:04:47.727Z,11.80
2023-07-08T04:05:50.019Z,14.30
2023-07-08T04:06:53.207Z,14.50
2023-07-08T04:07:56.060Z,12.70
2023-07-08T04:08:58.413Z,12.18
2023-07-08T04:10:00.650Z,11.30
2023-07-08T04:11:03.302Z,12.90
2023-07-08T04:12:06.206Z,11.80
2023-07-08T04:13:08.734Z,12.90
2023-07-08T04:14:11.267Z,11.20
2023-07-08T04:15:13.905Z,10.40
2023-07-08T04:17:30.942Z,14.00
2023-07-08T04:18:33.812Z,12.50
2023-07-08T04:19:36.077Z,13.45
2023-07-08T04:20:38.492Z,13.60
2023-07-08T04:21:42.744Z,11.30
2023-07-08T04:22:46.106Z,13.30
2023-07-08T04:23:48.649Z,12.40
2023-07-08T04:24:50.802Z,12.20
2023-07-08T04:25:56.521Z,12.30
2023-07-08T04:26:59.289Z,11.50
2023-07-08T04:28:01.513Z,13.00
2023-07-08T04:29:03.722Z,15.10
2023-07-08T04:30:08.047Z,11.60
2023-07-08T04:31:10.399Z,13.10
2023-07-08T04:32:13.273Z,12.40
2023-07-08T04:33:17.449Z,13.50
2023-07-08T04:34:20.071Z,12.70
2023-07-08T04:35:22.313Z,13.20
2023-07-08T04:36:25.154Z,13.50
2023-07-08T04:37:27.529Z,13.70
2023-07-08T04:38:29.730Z,13.20
2023-07-08T04:39:32.474Z,11.30
2023-07-08T04:40:35.135Z,14.09
2023-07-08T04:41:38.261Z,10.90
2023-07-08T04:42:40.371Z,13.10
2023-07-08T04:43:43.052Z,11.00
2023-07-08T04:44:45.345Z,12.00
2023-07-08T04:45:51.300Z,13.60
2023-07-08T04:46:56.812Z,10.90
2023-07-08T04:47:59.176Z,13.50
2023-07-08T04:49:02.586Z,11.70
2023-07-08T04:50:05.256Z,12.60
2023-07-08T04:51:09.218Z,11.55
2023-07-08T04:52:11.762Z,11.70
2023-07-08T04:53:14.017Z,13.50
2023-07-08T04:54:16.593Z,11.50
2023-07-08T04:55:19.724Z,11.10
2023-07-08T04:56:22.948Z,14.20
2023-07-08T04:57:25.249Z,10.55
2023-07-08T04:58:27.568Z,13.80
2023-07-08T04:59:29.754Z,11.90
2023-07-08T05:00:32.066Z,12.40
2023-07-08T05:01:34.316Z,12.60
2023-07-08T05:02:36.634Z,13.00
2023-07-08T05:03:38.992Z,12.90
2023-07-08T05:04:41.184Z,11.50
2023-07-08T05:05:45.062Z,12.50
2023-07-08T05:06:47.714Z,12.30
2023-07-08T05:07:50.265Z,13.40
2023-07-08T05:08:52.504Z,12.50
2023-07-08T05:09:54.802Z,12.10
2023-07-08T05:10:57.300Z,12.50
2023-07-08T05:11:59.608Z,10.90
2023-07-08T05:13:02.368Z,10.70
2023-07-08T05:14:05.525Z,13.70
2023-07-08T05:15:08.493Z,14.10
2023-07-08T05:16:11.689Z,10.90
2023-07-08T05:17:13.899Z,11.80
2023-07-08T05:18:16.055Z,12.10
2023-07-08T05:19:18.683Z,11.40
2023-07-08T05:20:21.002Z,10.90
2023-07-08T05:21:24.769Z,13.30
2023-07-08T05:22:28.442Z,9.70
2023-07-08T05:23:30.645Z,11.70
2023-07-08T05:24:33.230Z,9.30
2023-07-08T05:25:36.426Z,10.80
2023-07-08T05:26:39.262Z,10.70
2023-07-08T05:27:41.735Z,10.40
2023-07-08T05:28:43.994Z,10.60
2023-07-08T05:29:50.513Z,11.80
2023-07-08T05:30:54.230Z,9.90
2023-07-08T05:31:59.606Z,10.50
2023-07-08T05:33:02.083Z,8.00
2023-07-08T05:34:04.341Z,10.30
2023-07-08T05:35:08.551Z,12.40
2023-07-08T05:36:12.041Z,10.70
2023-07-08T05:37:15.406Z,10.20
2023-07-08T05:38:18.858Z,11.20
2023-07-08T05:39:21.107Z,12.60
2023-07-08T05:40:23.442Z,11.20
2023-07-08T05:41:25.692Z,11.20
2023-07-08T05:42:28.271Z,11.70
2023-07-08T05:43:30.870Z,10.00
2023-07-08T05:44:33.506Z,10.60
2023-07-08T05:45:35.717Z,11.00
2023-07-08T05:46:38.239Z,12.30
2023-07-08T05:47:41.219Z,9.20
2023-07-08T05:48:43.607Z,9.00
2023-07-08T05:49:45.891Z,10.10
2023-07-08T05:50:48.720Z,10.70
2023-07-08T05:51:51.055Z,10.10
2023-07-08T05:52:53.396Z,10.30
2023-07-08T05:53:55.590Z,10.90
2023-07-08T05:54:58.121Z,10.10
2023-07-08T05:56:00.376Z,8.90
2023-07-08T05:57:04.604Z,9.70
2023-07-08T05:58:15.127Z,10.40
2023-07-08T05:59:11.028Z,8.80
2023-07-08T06:00:21.092Z,8.30
2023-07-08T06:01:18.832Z,9.40
2023-07-08T06:02:21.744Z,10.10
2023-07-08T06:03:24.287Z,9.27
2023-07-08T06:04:27.861Z,10.60
2023-07-08T06:05:30.554Z,9.00
2023-07-08T06:06:32.948Z,10.45
2023-07-08T06:07:35.144Z,9.30
2023-07-08T06:08:37.350Z,9.60
2023-07-08T06:09:39.600Z,7.70
2023-07-08T06:10:43.384Z,9.50
2023-07-08T06:11:46.067Z,7.80
2023-07-08T06:12:48.812Z,9.80
2023-07-08T06:13:51.165Z,8.90
2023-07-08T06:14:53.258Z,10.00
2023-07-08T06:15:55.815Z,9.90
2023-07-08T06:16:58.971Z,10.10
2023-07-08T06:18:01.490Z,8.30
2023-07-08T06:19:03.686Z,7.90
2023-07-08T06:20:07.549Z,8.70
2023-07-08T06:21:09.860Z,9.20
2023-07-08T06:22:43.452Z,8.00
2023-07-08T06:23:15.901Z,8.40
2023-07-08T06:24:19.149Z,10.00
2023-07-08T06:25:21.423Z,8.40
2023-07-08T06:26:24.191Z,8.10
2023-07-08T06:27:26.741Z,8.09
2023-07-08T06:28:28.901Z,10.60
2023-07-08T06:29:31.340Z,6.90
2023-07-08T06:30:33.537Z,11.40
2023-07-08T06:31:35.857Z,10.30
2023-07-08T06:32:38.630Z,9.40
2023-07-08T06:33:40.757Z,8.90
2023-07-08T06:34:43.255Z,7.40
2023-07-08T06:35:45.479Z,7.70
2023-07-08T06:36:47.769Z,9.90
2023-07-08T06:37:50.289Z,8.10
2023-07-08T06:38:52.429Z,9.90
2023-07-08T06:39:54.792Z,8.40
2023-07-08T06:40:57.885Z,8.20
2023-07-08T06:42:01.472Z,9.50
2023-07-08T06:43:05.455Z,8.20
2023-07-08T06:44:10.170Z,7.70
2023-07-08T06:45:13.170Z,7.90
2023-07-08T06:46:16.677Z,9.80
2023-07-08T06:47:20.123Z,8.20
2023-07-08T06:48:22.562Z,9.60
2023-07-08T06:49:25.426Z,9.50
2023-07-08T06:50:27.575Z,7.50
2023-07-08T06:51:29.829Z,9.70
2023-07-08T06:52:32.521Z,8.60
2023-07-08T06:53:34.824Z,10.20
2023-07-08T06:54:37.166Z,8.40
2023-07-08T06:55:41.033Z,9.40
2023-07-08T06:56:43.424Z,8.30
2023-07-08T06:57:45.702Z,9.50
2023-07-08T06:58:47.767Z,9.00
2023-07-08T06:59:49.926Z,7.60
2023-07-08T07:00:52.654Z,8.20
2023-07-08T07:01:55.226Z,9.70
2023-07-08T07:02:57.864Z,7.90
2023-07-08T07:04:00.330Z,7.50
2023-07-08T07:05:04.180Z,9.90
2023-07-08T07:06:06.525Z,7.70
2023-07-08T07:07:08.858Z,7.20
2023-07-08T07:08:11.158Z,7.40
2023-07-08T07:09:13.502Z,9.50
2023-07-08T07:10:15.889Z,8.20
2023-07-08T07:11:18.253Z,10.50
2023-07-08T07:12:20.507Z,7.80
2023-07-08T07:13:22.953Z,9.60
2023-07-08T07:15:29.320Z,9.80
2023-07-08T07:16:33.137Z,8.50
2023-07-08T07:17:38.654Z,8.60
2023-07-08T07:18:43.836Z,9.60
2023-07-08T07:19:50.071Z,8.50
2023-07-08T07:22:22.498Z,8.60
2023-07-08T07:23:30.946Z,9.40
2023-07-08T07:24:36.196Z,8.80
2023-07-08T07:25:44.599Z,8.10
2023-07-08T07:27:04.331Z,8.00
2023-07-08T07:28:10.468Z,8.10
2023-07-08T07:29:17.263Z,7.50
2023-07-08T07:30:26.092Z,9.00
2023-07-08T07:31:32.411Z,9.00
2023-07-08T07:32:39.986Z,8.20
2023-07-08T07:33:43.843Z,7.00
2023-07-08T07:34:51.857Z,9.00
2023-07-08T07:35:55.662Z,6.40
2023-07-08T07:36:58.525Z,9.20
2023-07-08T07:38:01.762Z,8.10
2023-07-08T07:39:05.194Z,8.20
2023-07-08T07:40:12.206Z,7.70
2023-07-08T07:41:15.122Z,7.70
2023-07-08T07:42:21.107Z,6.50
2023-07-08T07:43:24.879Z,9.60
2023-07-08T07:44:28.447Z,8.20
2023-07-08T07:45:34.855Z,7.70
2023-07-08T07:46:39.966Z,7.80
2023-07-08T07:47:46.341Z,7.10
2023-07-08T07:48:52.789Z,8.40
2023-07-08T07:50:01.519Z,6.90
2023-07-08T07:51:07.189Z,5.90
2023-07-08T07:52:18.754Z,5.60
2023-07-08T07:53:27.560Z,8.10
2023-07-08T07:54:33.833Z,6.70
2023-07-08T07:55:37.694Z,8.20
2023-07-08T07:56:41.115Z,7.90
2023-07-08T07:57:46.149Z,8.00
2023-07-08T07:58:52.990Z,6.90
2023-07-08T07:59:58.110Z,6.90
2023-07-08T08:01:04.974Z,6.70
2023-07-08T08:02:09.439Z,6.00
2023-07-08T08:03:22.805Z,7.40
2023-07-08T08:04:32.562Z,7.10
2023-07-08T08:05:35.641Z,6.70
2023-07-08T08:06:41.617Z,8.30
2023-07-08T08:07:55.511Z,7.50
2023-07-08T08:08:58.726Z,6.80
2023-07-08T08:10:05.613Z,7.80
2023-07-08T08:11:15.834Z,7.90
2023-07-08T08:12:25.317Z,6.40
2023-07-08T08:13:30.965Z,7.80
2023-07-08T08:14:40.413Z,5.90
2023-07-08T08:15:43.693Z,7.50
2023-07-08T08:16:46.894Z,7.70
2023-07-08T08:17:54.923Z,5.50
2023-07-08T08:19:06.080Z,5.50
2023-07-08T08:20:10.611Z,7.30
2023-07-08T08:21:16.636Z,8.10
2023-07-08T08:22:21.117Z,7.50
2023-07-08T08:23:27.610Z,8.30
2023-07-08T08:24:37.797Z,9.40
2023-07-08T08:25:46.433Z,9.00
2023-07-08T08:26:53.729Z,8.60
2023-07-08T08:27:58.666Z,8.40
2023-07-08T08:29:06.085Z,7.60
2023-07-08T08:30:17.406Z,7.00
2023-07-08T08:31:22.948Z,7.40
2023-07-08T08:32:26.644Z,7.00
2023-07-08T08:33:39.910Z,6.80
2023-07-08T08:34:42.831Z,8.60
2023-07-08T08:35:51.204Z,6.70
2023-07-08T08:36:56.434Z,5.90
2023-07-08T08:38:03.553Z,6.60
2023-07-08T08:39:07.972Z,4.80
2023-07-08T08:40:33.487Z,6.20
2023-07-08T08:41:43.145Z,8.20
2023-07-08T08:42:50.130Z,7.00
2023-07-08T08:43:58.469Z,5.70
2023-07-08T08:46:34.972Z,5.30
2023-07-08T08:47:45.371Z,6.20
2023-07-08T08:50:30.854Z,4.90
2023-07-08T08:51:34.327Z,5.00
2023-07-08T08:52:38.825Z,6.20
2023-07-08T08:53:41.137Z,5.50
2023-07-08T08:54:43.477Z,5.80
2023-07-08T08:55:49.091Z,5.30
2023-07-08T08:58:28.381Z,7.20
2023-07-08T08:59:40.330Z,4.60
2023-07-08T09:00:49.766Z,5.40
2023-07-08T09:01:53.782Z,4.70
2023-07-08T09:03:06.581Z,5.10
2023-07-08T09:05:23.938Z,6.60
2023-07-08T09:06:36.795Z,7.40
2023-07-08T09:07:51.949Z,5.50
2023-07-08T09:08:57.116Z,6.50
2023-07-08T09:11:28.280Z,4.40
2023-07-08T09:12:33.703Z,5.80
2023-07-08T09:13:38.331Z,5.50
2023-07-08T09:14:40.791Z,6.50
2023-07-08T09:15:43.085Z,4.40
2023-07-08T09:16:54.777Z,4.90
2023-07-08T09:18:01.269Z,5.30
2023-07-08T09:19:16.323Z,5.70
2023-07-08T09:20:28.085Z,6.70
2023-07-08T09:21:36.997Z,6.20
2023-07-08T09:22:48.557Z,6.90
2023-07-08T09:23:54.471Z,6.40
2023-07-08T09:25:12.749Z,5.70
2023-07-08T09:26:19.328Z,6.60
2023-07-08T09:27:21.730Z,5.30
2023-07-08T09:28:39.550Z,5.40
2023-07-08T09:29:41.934Z,4.40
2023-07-08T09:30:51.003Z,5.20
2023-07-08T09:31:54.451Z,4.50
2023-07-08T09:32:58.413Z,6.30
2023-07-08T09:34:19.563Z,5.40
2023-07-08T09:35:31.746Z,5.20
2023-07-08T09:36:34.132Z,5.60
2023-07-08T09:37:41.021Z,6.30
2023-07-08T09:38:45.221Z,6.90
2023-07-08T09:39:47.404Z,7.00
2023-07-08T09:40:54.122Z,6.40
2023-07-08T09:41:56.497Z,7.00
2023-07-08T09:43:05.155Z,6.70
2023-07-08T09:44:17.823Z,4.30
2023-07-08T09:45:23.696Z,4.40
2023-07-08T09:46:26.226Z,6.30
2023-07-08T09:47:32.214Z,5.60
2023-07-08T09:48:36.781Z,6.20
2023-07-08T09:49:39.214Z,5.20
2023-07-08T09:50:44.099Z,6.64
2023-07-08T09:51:47.184Z,7.80
2023-07-08T09:52:52.582Z,6.20
2023-07-08T09:53:54.933Z,5.30
2023-07-08T09:54:57.166Z,5.70
2023-07-08T09:56:02.069Z,6.20
2023-07-08T09:57:08.428Z,5.60
2023-07-08T09:58:17.539Z,5.40
2023-07-08T09:59:23.503Z,4.30
2023-07-08T10:00:40.909Z,4.60
2023-07-08T10:01:43.720Z,6.40
2023-07-08T10:02:58.079Z,6.20
2023-07-08T10:04:02.202Z,6.50
2023-07-08T10:06:32.966Z,8.00
2023-07-08T10:07:35.301Z,5.80
2023-07-08T10:08:43.017Z,7.10
2023-07-08T10:11:07.071Z,5.80
2023-07-08T10:12:13.033Z,5.60
2023-07-08T10:13:26.879Z,4.90
2023-07-08T10:14:44.952Z,4.80
2023-07-08T10:16:00.005Z,4.90
2023-07-08T10:18:18.339Z,4.40
2023-07-08T10:19:22.623Z,6.40
2023-07-08T10:20:29.220Z,5.20
2023-07-08T10:21:41.090Z,4.20
2023-07-08T10:23:04.983Z,4.50
2023-07-08T10:24:13.866Z,4.20
2023-07-08T10:25:29.125Z,3.60
2023-07-08T10:26:33.597Z,3.00
2023-07-08T10:27:42.253Z,3.40
2023-07-08T10:29:06.650Z,4.80
2023-07-08T10:30:22.398Z,6.10
2023-07-08T10:33:18.422Z,6.00
2023-07-08T10:34:39.581Z,4.60
2023-07-08T10:36:01.867Z,3.00
2023-07-08T10:37:29.354Z,6.00
2023-07-08T10:38:42.109Z,8.30
2023-07-08T10:39:50.892Z,16.80
2023-07-08T10:42:32.128Z,12.70
2023-07-08T10:43:50.096Z,7.40
2023-07-08T10:44:56.312Z,11.90
2023-07-08T10:47:57.084Z,6.50
2023-07-08T10:49:22.865Z,5.00
2023-07-08T10:50:38.310Z,6.00
2023-07-08T10:52:08.900Z,5.10
2023-07-08T10:53:33.871Z,6.20
2023-07-08T10:54:51.775Z,5.20
2023-07-08T10:55:58.195Z,5.30
2023-07-08T10:58:34.863Z,5.60
2023-07-08T10:59:59.054Z,6.20
2023-07-08T11:02:49.995Z,5.80
2023-07-08T11:05:41.051Z,8.90
2023-07-08T11:07:02.067Z,9.00
2023-07-08T11:08:13.998Z,5.70
2023-07-08T11:11:57.612Z,8.40
2023-07-08T11:14:15.964Z,7.10
2023-07-08T11:15:25.173Z,6.60
2023-07-08T11:16:36.714Z,3.40
2023-07-08T11:19:00.103Z,4.00
2023-07-08T11:20:15.286Z,3.80
2023-07-08T11:21:24.395Z,4.50
2023-07-08T11:22:30.126Z,6.10
2023-07-08T11:25:06.782Z,4.90
2023-07-08T11:27:32.093Z,4.70
2023-07-08T11:28:34.850Z,5.10
2023-07-08T11:29:41.152Z,4.00
2023-07-08T11:30:47.288Z,6.00
2023-07-08T11:31:52.640Z,4.30
2023-07-08T11:33:07.578Z,3.10
2023-07-08T11:34:13.911Z,4.10
2023-07-08T11:35:23.005Z,3.60
2023-07-08T11:36:27.538Z,4.80
2023-07-08T11:37:31.502Z,5.30
2023-07-08T11:38:34.037Z,3.60
2023-07-08T11:39:41.862Z,3.00
2023-07-08T11:41:02.472Z,4.90
2023-07-08T11:42:12.144Z,6.10
2023-07-08T11:43:14.891Z,3.90
2023-07-08T11:44:17.763Z,4.30
2023-07-08T11:45:26.541Z,5.00
2023-07-08T11:46:32.458Z,5.50
2023-07-08T11:47:44.656Z,5.00
2023-07-08T11:48:50.924Z,5.70
2023-07-08T11:49:54.689Z,4.80
2023-07-08T11:50:58.915Z,5.00
2023-07-08T11:52:03.353Z,5.60
2023-07-08T11:54:31.276Z,5.80
2023-07-08T11:55:42.977Z,4.60
2023-07-08T11:57:02.754Z,4.10
2023-07-08T11:58:11.330Z,5.10
2023-07-08T11:59:17.240Z,7.00
2023-07-08T12:00:25.288Z,6.70
2023-07-08T12:01:31.158Z,9.10
2023-07-08T12:02:37.132Z,7.20
2023-07-08T12:05:03.804Z,6.30
2023-07-08T12:06:29.581Z,7.50
2023-07-08T12:08:43.596Z,6.10
2023-07-08T12:11:12.422Z,5.60
2023-07-08T12:12:18.856Z,4.90
2023-07-08T12:13:24.067Z,3.70
2023-07-08T12:14:29.340Z,4.00
2023-07-08T12:15:33.234Z,5.20
2023-07-08T12:17:45.781Z,6.70
2023-07-08T12:18:50.669Z,3.50
2023-07-08T12:19:56.201Z,4.90
2023-07-08T12:21:01.534Z,4.80
2023-07-08T12:22:05.627Z,5.50
2023-07-08T12:23:18.138Z,5.50
2023-07-08T12:24:20.956Z,5.00
2023-07-08T12:26:38.348Z,4.70
2023-07-08T12:27:53.420Z,5.50
2023-07-08T12:28:58.371Z,8.00
2023-07-08T12:30:01.483Z,5.09
2023-07-08T12:32:19.241Z,4.10
2023-07-08T12:33:31.073Z,4.50
2023-07-08T12:34:34.437Z,7.80
2023-07-08T12:35:37.892Z,4.70
2023-07-08T12:36:41.830Z,4.80
2023-07-08T12:37:44.807Z,5.10
2023-07-08T12:38:50.497Z,5.20
2023-07-08T12:39:57.195Z,5.80
2023-07-08T12:41:02.808Z,4.50
2023-07-08T12:42:11.451Z,5.40
2023-07-08T12:43:14.875Z,5.40
2023-07-08T12:44:20.542Z,3.50
2023-07-08T12:45:25.338Z,5.40
2023-07-08T12:46:29.787Z,5.10
2023-07-08T12:47:32.729Z,5.30
2023-07-08T12:48:35.102Z,4.00
2023-07-08T12:49:37.230Z,4.00
2023-07-08T12:50:39.664Z,4.20
2023-07-08T12:51:44.559Z,4.30
2023-07-08T12:52:47.902Z,4.80
2023-07-08T12:53:52.123Z,4.80
2023-07-08T12:54:54.338Z,4.10
2023-07-08T12:55:59.360Z,4.00
2023-07-08T12:57:02.393Z,5.50
2023-07-08T12:58:05.072Z,3.91
2023-07-08T12:59:07.967Z,4.00
2023-07-08T13:01:28.020Z,6.90
2023-07-08T13:02:33.542Z,7.90
2023-07-08T13:04:57.862Z,12.00
2023-07-08T13:06:05.116Z,13.20
2023-07-08T13:07:11.047Z,15.40
2023-07-08T13:08:15.976Z,17.00
2023-07-08T13:09:36.383Z,13.40
2023-07-08T13:10:40.020Z,10.20
2023-07-08T13:11:42.880Z,13.50
2023-07-08T13:12:47.084Z,13.80
2023-07-08T13:13:53.466Z,9.30
2023-07-08T13:14:59.375Z,8.80
2023-07-08T13:16:02.215Z,7.50
2023-07-08T13:17:05.782Z,6.10
2023-07-08T13:18:20.749Z,6.90
2023-07-08T13:19:24.615Z,9.50
2023-07-08T13:20:27.603Z,8.60
2023-07-08T13:21:30.926Z,11.00
2023-07-08T13:22:33.844Z,10.70
2023-07-08T13:23:36.828Z,10.91
2023-07-08T13:24:38.949Z,11.36
2023-07-08T13:25:42.282Z,11.10
2023-07-08T13:26:49.065Z,7.00
2023-07-08T13:28:01.028Z,6.30
2023-07-08T13:29:15.071Z,5.00
2023-07-08T13:30:21.865Z,4.70
2023-07-08T13:31:25.618Z,5.00
2023-07-08T13:32:33.066Z,6.40
2023-07-08T13:33:35.118Z,8.10
2023-07-08T13:34:37.940Z,6.00
2023-07-08T13:35:42.658Z,6.00
2023-07-08T13:36:49.090Z,6.50
2023-07-08T13:37:52.686Z,5.70
2023-07-08T13:38:57.669Z,5.70
2023-07-08T13:39:59.969Z,4.30
2023-07-08T13:41:05.907Z,7.40
2023-07-08T13:42:08.825Z,4.20
2023-07-08T13:43:11.031Z,4.27
2023-07-08T13:44:13.583Z,4.70
2023-07-08T13:45:19.967Z,4.80
2023-07-08T13:46:37.799Z,4.00
2023-07-08T13:47:40.757Z,5.10
2023-07-08T13:48:44.520Z,4.64
2023-07-08T13:49:50.546Z,3.40
2023-07-08T13:52:20.900Z,5.30
2023-07-08T13:53:30.138Z,5.40
2023-07-08T13:55:49.999Z,5.10
2023-07-08T13:56:54.802Z,5.30
2023-07-08T13:58:02.678Z,6.20
2023-07-08T13:59:08.070Z,5.70
2023-07-08T14:00:11.578Z,5.20
2023-07-08T14:01:23.176Z,6.40
2023-07-08T14:02:31.875Z,4.20
2023-07-08T14:03:34.442Z,4.20
2023-07-08T14:04:36.746Z,4.80
2023-07-08T14:05:39.661Z,3.80
2023-07-08T14:06:42.103Z,3.20
2023-07-08T14:07:44.948Z,3.90
2023-07-08T14:08:47.816Z,3.45
2023-07-08T14:09:50.424Z,3.73
2023-07-08T14:10:52.940Z,3.00
2023-07-08T14:11:55.685Z,4.10
2023-07-08T14:12:58.593Z,3.09
2023-07-08T14:14:01.105Z,2.82
2023-07-08T14:15:03.762Z,4.50
2023-07-08T14:17:24.417Z,3.70
2023-07-08T14:18:28.068Z,3.00
2023-07-08T14:19:32.888Z,3.90
2023-07-08T14:20:35.319Z,3.50
2023-07-08T14:21:37.620Z,4.10
2023-07-08T14:22:39.780Z,2.80
2023-07-08T14:23:42.127Z,3.10
2023-07-08T14:24:44.312Z,3.70
2023-07-08T14:25:46.404Z,3.90
2023-07-08T14:26:48.782Z,3.00
2023-07-08T14:27:51.456Z,3.50
2023-07-08T14:28:53.705Z,2.50
2023-07-08T14:29:55.985Z,3.10
2023-07-08T14:31:01.822Z,3.10
2023-07-08T14:32:04.525Z,2.80
2023-07-08T14:33:13.129Z,2.50
2023-07-08T14:34:24.948Z,3.70
2023-07-08T14:35:29.816Z,3.50
2023-07-08T14:36:32.894Z,2.90
2023-07-08T14:37:35.254Z,3.18
2023-07-08T14:39:51.818Z,2.20
2023-07-08T14:40:59.403Z,3.36
2023-07-08T14:42:02.420Z,5.10
2023-07-08T14:44:52.710Z,3.30
2023-07-08T14:47:13.142Z,4.90
2023-07-08T14:48:19.632Z,3.10
2023-07-08T14:49:23.726Z,3.80
2023-07-08T14:50:26.244Z,3.20
2023-07-08T14:51:35.588Z,2.80
2023-07-08T14:52:35.575Z,2.00
2023-07-08T14:53:38.022Z,3.00
2023-07-08T14:54:40.178Z,2.90
2023-07-08T14:55:44.795Z,2.00
2023-07-08T14:56:50.077Z,3.80
2023-07-08T14:57:53.320Z,2.70
2023-07-08T14:58:55.920Z,2.90
2023-07-08T14:59:58.403Z,3.70
2023-07-08T15:01:04.360Z,2.60
2023-07-08T15:03:28.058Z,3.30
2023-07-08T15:04:30.952Z,2.40
2023-07-08T15:05:33.907Z,2.50
2023-07-08T15:06:36.221Z,2.27
2023-07-08T15:07:38.489Z,2.60
2023-07-08T15:08:41.640Z,3.20
2023-07-08T15:09:45.290Z,3.40
2023-07-08T15:10:53.212Z,2.30
2023-07-08T15:11:55.536Z,2.70
2023-07-08T15:13:00.628Z,2.80
2023-07-08T15:14:03.997Z,2.40
2023-07-08T15:15:15.724Z,4.90
2023-07-08T15:16:19.886Z,1.20
2023-07-08T15:17:23.968Z,3.50
2023-07-08T15:18:30.943Z,2.50
2023-07-08T15:19:33.588Z,3.30
2023-07-08T15:20:37.942Z,2.50